DLH425 ELLX-EIDW
Flight info
| Callsign | DLH425 |
|---|---|
| Flight time | N/A |
| Altitude | 38000 |
| Route | DIK N852 TERLA L608 DENUT L610 KOPUL Q60 OKSAW DCT TEWXI DCT LANON L18 ABLIN ABLIN4L |
| Aircraft | B77L/H-SDE1E2E3FGHIJ2J3J4J5M1RWXY/LB1D1 |
Departure
| Time | 2026-05-01 15:22 |
|---|---|
| Airport | Luxembourg-Findel International Airport (ELLX) |
Arrival
| Time | N/A |
|---|---|
| Airport | Dublin Airport (EIDW) |
| Time | Latitude | Longitude | Altitude | Speed | Heading |
|---|---|---|---|---|---|
| 2026-05-01 14:55 | 49.63684 | 6.22847 | 1218 ft | 0 kts | 60° |
| 2026-05-01 15:06 | 49.63682 | 6.22843 | 1218 ft | 3 kts | 60° |
| 2026-05-01 15:07 | 49.63669 | 6.22807 | 1218 ft | 4 kts | 60° |
| 2026-05-01 15:07 | 49.63656 | 6.22775 | 1218 ft | 4 kts | 43° |
| 2026-05-01 15:07 | 49.63639 | 6.22759 | 1218 ft | 4 kts | 359° |
| 2026-05-01 15:07 | 49.63615 | 6.22767 | 1218 ft | 4 kts | 333° |
| 2026-05-01 15:08 | 49.63597 | 6.22782 | 1218 ft | 4 kts | 330° |
| 2026-05-01 15:08 | 49.63573 | 6.22803 | 1218 ft | 4 kts | 330° |
| 2026-05-01 15:08 | 49.63550 | 6.22824 | 1218 ft | 4 kts | 330° |
| 2026-05-01 15:08 | 49.63532 | 6.22840 | 1218 ft | 3 kts | 331° |
| 2026-05-01 15:09 | 49.63509 | 6.22855 | 1219 ft | 4 kts | 354° |
| 2026-05-01 15:09 | 49.63485 | 6.22852 | 1219 ft | 4 kts | 26° |
| 2026-05-01 15:09 | 49.63466 | 6.22830 | 1219 ft | 4 kts | 57° |
| 2026-05-01 15:09 | 49.63455 | 6.22803 | 1219 ft | 4 kts | 60° |
| 2026-05-01 15:10 | 49.63448 | 6.22783 | 1219 ft | 0 kts | 60° |
| 2026-05-01 15:13 | 49.63469 | 6.22785 | 1219 ft | 2 kts | 314° |
| 2026-05-01 15:14 | 49.63451 | 6.22755 | 1219 ft | 3 kts | 201° |
| 2026-05-01 15:14 | 49.63427 | 6.22727 | 1219 ft | 4 kts | 232° |
| 2026-05-01 15:14 | 49.63421 | 6.22711 | 1219 ft | 1 kts | 239° |
| 2026-05-01 15:15 | 49.63367 | 6.22564 | 1220 ft | 19 kts | 240° |
| 2026-05-01 15:15 | 49.63249 | 6.22201 | 1230 ft | 19 kts | 244° |
| 2026-05-01 15:16 | 49.63170 | 6.21949 | 1232 ft | 6 kts | 244° |
| 2026-05-01 15:16 | 49.63162 | 6.21921 | 1232 ft | 3 kts | 244° |
| 2026-05-01 15:17 | 49.63075 | 6.21635 | 1230 ft | 18 kts | 244° |
| 2026-05-01 15:18 | 49.62913 | 6.21116 | 1249 ft | 18 kts | 244° |
| 2026-05-01 15:18 | 49.62876 | 6.21001 | 1245 ft | 18 kts | 244° |
| 2026-05-01 15:19 | 49.62648 | 6.20555 | 1258 ft | 18 kts | 226° |
| 2026-05-01 15:19 | 49.62461 | 6.20190 | 1226 ft | 26 kts | 239° |
| 2026-05-01 15:19 | 49.62362 | 6.19922 | 1210 ft | 31 kts | 240° |
| 2026-05-01 15:20 | 49.62154 | 6.19363 | 1176 ft | 27 kts | 240° |
| 2026-05-01 15:20 | 49.62054 | 6.19091 | 1166 ft | 30 kts | 240° |
| 2026-05-01 15:20 | 49.61949 | 6.18829 | 1161 ft | 29 kts | 228° |
| 2026-05-01 15:21 | 49.61830 | 6.18711 | 1159 ft | 14 kts | 175° |
| 2026-05-01 15:21 | 49.61782 | 6.18821 | 1162 ft | 14 kts | 77° |
| 2026-05-01 15:21 | 49.61809 | 6.18903 | 1165 ft | 7 kts | 60° |
| 2026-05-01 15:21 | 49.61993 | 6.19400 | 1173 ft | 113 kts | 60° |
| 2026-05-01 15:22 | 49.63250 | 6.22755 | 3061 ft | 194 kts | 64° |
| 2026-05-01 15:22 | 49.63979 | 6.24713 | 3744 ft | 229 kts | 63° |
| 2026-05-01 15:22 | 49.64831 | 6.27000 | 3961 ft | 261 kts | 63° |
| 2026-05-01 15:23 | 49.65736 | 6.29405 | 3990 ft | 258 kts | 63° |
| 2026-05-01 15:23 | 49.66627 | 6.31794 | 3990 ft | 253 kts | 64° |
| 2026-05-01 15:23 | 49.67513 | 6.34200 | 4018 ft | 263 kts | 63° |
| 2026-05-01 15:23 | 49.68425 | 6.36656 | 4616 ft | 268 kts | 62° |
| 2026-05-01 15:24 | 49.69397 | 6.39134 | 5873 ft | 273 kts | 53° |
| 2026-05-01 15:24 | 49.70942 | 6.40924 | 6978 ft | 285 kts | 22° |
| 2026-05-01 15:24 | 49.72905 | 6.41379 | 8116 ft | 290 kts | 354° |
| 2026-05-01 15:24 | 49.74825 | 6.40403 | 9243 ft | 295 kts | 325° |
| 2026-05-01 15:25 | 49.76243 | 6.38142 | 10348 ft | 295 kts | 302° |
| 2026-05-01 15:25 | 49.77342 | 6.35401 | 11072 ft | 313 kts | 299° |
| 2026-05-01 15:25 | 49.78513 | 6.32348 | 11419 ft | 347 kts | 299° |
| 2026-05-01 15:25 | 49.79798 | 6.29014 | 12021 ft | 368 kts | 300° |
| 2026-05-01 15:26 | 49.81146 | 6.25558 | 13045 ft | 378 kts | 300° |
| 2026-05-01 15:26 | 49.82522 | 6.22059 | 13982 ft | 381 kts | 300° |
| 2026-05-01 15:26 | 49.83920 | 6.18522 | 14712 ft | 389 kts | 300° |
| 2026-05-01 15:26 | 49.85371 | 6.15051 | 15724 ft | 388 kts | 308° |
| 2026-05-01 15:27 | 49.87424 | 6.12260 | 16586 ft | 399 kts | 330° |
| 2026-05-01 15:27 | 49.90006 | 6.10600 | 17435 ft | 403 kts | 341° |
| 2026-05-01 15:27 | 49.92699 | 6.09180 | 18280 ft | 412 kts | 341° |
| 2026-05-01 15:28 | 49.98096 | 6.06152 | 20164 ft | 418 kts | 340° |
| 2026-05-01 15:28 | 50.00839 | 6.04571 | 21018 ft | 422 kts | 340° |
| 2026-05-01 15:28 | 50.03616 | 6.02971 | 21856 ft | 427 kts | 340° |
| 2026-05-01 15:29 | 50.09249 | 5.99725 | 23656 ft | 433 kts | 340° |
| 2026-05-01 15:29 | 50.12062 | 5.98103 | 24410 ft | 438 kts | 340° |
| 2026-05-01 15:29 | 50.17885 | 5.94747 | 25735 ft | 447 kts | 340° |
| 2026-05-01 15:30 | 50.23755 | 5.91353 | 27118 ft | 456 kts | 340° |
| 2026-05-01 15:31 | 50.35878 | 5.84308 | 29740 ft | 472 kts | 340° |
| 2026-05-01 15:31 | 50.42054 | 5.80705 | 30865 ft | 478 kts | 339° |
| 2026-05-01 15:32 | 50.48348 | 5.77021 | 31746 ft | 485 kts | 339° |
| 2026-05-01 15:32 | 50.54647 | 5.73327 | 33037 ft | 481 kts | 339° |
| 2026-05-01 15:33 | 50.64059 | 5.68258 | 34711 ft | 474 kts | 335° |
| 2026-05-01 15:34 | 50.70411 | 5.57028 | 35901 ft | 464 kts | 286° |